Time;durP1;ratioP1;P1;durP2;ratioP2;P2;SDS_P1;SDS_P2;PMS_P1;PMS_P2;Temp;Humidity;BMP_temperature;BMP_pressure;BME280_temperature;BME280_humidity;BME280_pressure;Samples;Min_cycle;Max_cycle;Signal;HPM_P1;HPM_P2
2022/09/16 00:00:47;;;;;;;5.72;2.67;;;;;;;20.04;61.24;98566.19;5012203;28;20037;-90
2022/09/16 00:03:12;;;;;;;5.35;3.15;;;;;;;19.93;62.21;98563.19;4980302;28;20029;-89
2022/09/16 00:05:46;;;;;;;4.72;2.92;;;;;;;19.94;61.78;98572.94;4999210;28;20471;-89
2022/09/16 00:08:11;;;;;;;8.90;3.17;;;;;;;19.97;60.93;98572.25;4998785;28;20033;-90
2022/09/16 00:10:37;;;;;;;8.55;3.17;;;;;;;19.90;61.25;98570.13;5012231;28;20512;-90
2022/09/16 00:13:02;;;;;;;8.45;2.95;;;;;;;19.85;61.40;98566.84;5011748;28;20053;-90
2022/09/16 00:15:28;;;;;;;9.88;3.15;;;;;;;19.78;61.22;98562.78;5031210;28;20030;-90
2022/09/16 00:17:53;;;;;;;7.43;2.92;;;;;;;19.68;61.80;98557.03;5015196;28;20480;-90
2022/09/16 00:20:19;;;;;;;7.45;3.00;;;;;;;19.84;61.09;98566.06;4993358;28;20031;-90
2022/09/16 00:22:44;;;;;;;6.90;2.47;;;;;;;19.98;60.84;98577.38;4959705;28;20027;-90
2022/09/16 00:25:10;;;;;;;9.55;3.70;;;;;;;20.01;60.35;98564.94;4993102;28;20083;-90
2022/09/16 00:27:36;;;;;;;8.02;3.33;;;;;;;19.98;61.00;98579.28;5015134;28;20037;-90
2022/09/16 00:30:01;;;;;;;8.15;3.47;;;;;;;19.98;61.06;98571.91;4991933;28;20040;-90
2022/09/16 00:32:27;;;;;;;7.68;2.97;;;;;;;20.15;60.38;98570.78;4976449;28;20031;-90
2022/09/16 00:34:52;;;;;;;14.23;2.80;;;;;;;20.26;59.98;98568.31;4988064;28;20108;-90
2022/09/16 00:37:18;;;;;;;10.20;2.47;;;;;;;20.26;58.78;98573.00;5015949;28;20491;-90
2022/09/16 00:39:43;;;;;;;5.22;2.17;;;;;;;20.19;59.16;98570.84;4998035;28;20049;-90
2022/09/16 00:42:10;;;;;;;12.25;2.60;;;;;;;20.01;59.45;98570.41;4975962;28;20037;-90
2022/09/16 00:44:54;;;;;;;7.18;2.65;;;;;;;19.92;61.25;98561.56;5000370;28;20021;-90
2022/09/16 00:47:30;;;;;;;4.45;2.05;;;;;;;19.81;61.19;98563.25;4998146;28;20055;-89
2022/09/16 00:50:00;;;;;;;4.95;2.60;;;;;;;19.63;62.59;98560.00;4964636;28;20488;-90
2022/09/16 00:52:26;;;;;;;6.90;2.65;;;;;;;19.55;62.82;98568.00;4976230;28;20038;-90
2022/09/16 00:54:51;;;;;;;3.80;2.38;;;;;;;19.67;61.80;98567.16;4975817;28;20060;-90
2022/09/16 00:57:17;;;;;;;5.93;2.50;;;;;;;19.65;62.18;98569.44;4976511;28;20037;-90
2022/09/16 00:59:47;;;;;;;8.38;2.80;;;;;;;19.49;63.29;98565.88;5005576;28;20026;-89
2022/09/16 01:02:16;;;;;;;10.07;2.65;;;;;;;19.44;63.78;98587.94;5018771;28;20476;-90
2022/09/16 01:04:43;;;;;;;6.70;2.42;;;;;;;19.24;64.29;98576.88;4986188;28;20496;-90
2022/09/16 01:07:08;;;;;;;7.25;2.72;;;;;;;19.06;64.77;98568.16;4979059;28;20026;-89
2022/09/16 01:09:34;;;;;;;10.35;3.22;;;;;;;19.03;64.96;98582.50;4971357;28;20034;-90
2022/09/16 01:11:59;;;;;;;6.65;2.55;;;;;;;18.98;65.38;98577.25;4979947;28;20489;-90
2022/09/16 01:17:48;;;;;;;6.68;2.28;;;;;;;18.93;65.72;98599.34;5020982;28;20037;-90
2022/09/16 01:20:44;;;;;;;5.25;2.55;;;;;;;18.69;65.92;98589.19;5006628;28;20567;-89
2022/09/16 01:23:27;;;;;;;9.68;2.78;;;;;;;18.77;66.09;98610.09;4965796;28;20036;-89
2022/09/16 01:26:14;;;;;;;5.65;2.58;;;;;;;18.68;66.32;98606.72;5034359;28;20087;-90
2022/09/16 01:28:57;;;;;;;4.07;2.30;;;;;;;18.84;65.73;98612.28;5030790;28;20025;-90
2022/09/16 01:31:31;;;;;;;8.57;2.55;;;;;;;18.97;65.05;98603.75;5014943;28;20029;-90
2022/09/16 01:33:59;;;;;;;6.22;2.38;;;;;;;19.01;65.04;98598.41;5005109;28;20164;-90
2022/09/16 01:36:48;;;;;;;7.45;2.63;;;;;;;18.93;64.84;98589.22;5035576;28;20060;-90
2022/09/16 01:39:21;;;;;;;6.53;3.10;;;;;;;18.89;65.06;98571.16;5010638;28;20026;-90
2022/09/16 01:42:04;;;;;;;7.47;2.70;;;;;;;18.87;64.90;98578.88;4998697;28;20048;-90
2022/09/16 01:44:44;;;;;;;9.32;2.97;;;;;;;18.96;64.32;98585.00;5014500;28;20022;-90
2022/09/16 01:47:20;;;;;;;5.40;2.92;;;;;;;19.13;64.30;98609.31;5015344;28;20018;-90
2022/09/16 01:49:54;;;;;;;6.88;2.83;;;;;;;18.96;64.45;98596.69;5029404;28;20022;-90
2022/09/16 01:52:23;;;;;;;7.25;2.70;;;;;;;18.92;64.61;98593.06;5017755;28;20022;-90
2022/09/16 01:54:59;;;;;;;15.85;3.33;;;;;;;18.91;65.44;98594.22;5004016;28;20044;-90
2022/09/16 01:57:51;;;;;;;6.65;2.97;;;;;;;19.07;64.84;98618.06;4997705;28;20028;-90
2022/09/16 02:00:17;;;;;;;4.82;3.28;;;;;;;18.95;65.14;98602.50;5032232;28;20072;-90
2022/09/16 02:02:45;;;;;;;4.95;2.60;;;;;;;19.09;65.01;98619.31;5001125;28;20033;-89
2022/09/16 02:05:33;;;;;;;7.35;3.47;;;;;;;18.92;66.00;98606.69;5016227;28;20026;-90
2022/09/16 02:08:10;;;;;;;8.38;3.38;;;;;;;18.91;65.67;98615.25;5013072;28;20232;-90
2022/09/16 02:10:40;;;;;;;11.25;3.42;;;;;;;18.83;66.20;98608.75;4962828;28;20049;-90
2022/09/16 02:13:22;;;;;;;12.35;3.40;;;;;;;18.83;66.33;98605.25;4978875;28;20098;-90
2022/09/16 02:15:50;;;;;;;9.38;2.70;;;;;;;18.77;66.32;98610.09;4962673;28;20030;-90
2022/09/16 02:18:18;;;;;;;6.97;3.33;;;;;;;18.70;66.46;98609.88;5013926;28;20022;-89
2022/09/16 02:20:44;;;;;;;7.32;2.67;;;;;;;18.67;66.29;98629.66;5001119;28;20017;-90
2022/09/16 02:23:19;;;;;;;10.98;2.85;;;;;;;18.51;67.05;98621.34;5016035;28;20029;-90
2022/09/16 02:25:46;;;;;;;6.07;2.92;;;;;;;18.46;67.09;98627.03;4998029;28;20026;-90
2022/09/16 02:28:15;;;;;;;7.28;3.42;;;;;;;18.45;66.71;98622.69;4998325;28;20472;-90
2022/09/16 02:30:43;;;;;;;7.20;2.92;;;;;;;18.37;67.57;98619.75;5001176;28;20087;-90
2022/09/16 02:33:08;;;;;;;8.55;3.47;;;;;;;18.57;67.16;98647.25;5032573;28;20376;-89
2022/09/16 02:35:35;;;;;;;8.02;3.30;;;;;;;18.48;66.54;98627.47;4996562;28;20084;-89
2022/09/16 02:38:25;;;;;;;6.70;3.80;;;;;;;18.54;66.09;98637.81;4997279;28;20029;-90
2022/09/16 02:40:55;;;;;;;9.10;3.67;;;;;;;18.57;66.14;98653.50;4978791;28;20468;-90
2022/09/16 02:43:20;;;;;;;7.13;3.33;;;;;;;18.61;65.83;98639.19;4965836;28;20496;-90
2022/09/16 02:46:07;;;;;;;7.93;3.75;;;;;;;18.71;65.78;98644.97;5000230;28;20139;-90
2022/09/16 02:48:59;;;;;;;7.93;3.75;;;;;;;18.72;65.84;98652.03;5029026;28;20492;-89
2022/09/16 02:51:49;;;;;;;9.93;4.22;;;;;;;18.89;64.90;98647.53;5011096;28;20116;-90
2022/09/16 02:54:50;;;;;;;6.38;3.55;;;;;;;18.96;64.21;98643.06;5022310;28;20025;-90
2022/09/16 02:57:15;;;;;;;11.50;4.13;;;;;;;19.00;63.56;98628.75;5019843;28;20087;-90
2022/09/16 02:59:41;;;;;;;12.02;4.40;;;;;;;18.94;64.26;98630.91;5003746;28;20480;-91
2022/09/16 03:02:06;;;;;;;9.95;3.85;;;;;;;18.99;64.81;98638.88;4996642;28;20124;-90
2022/09/16 03:04:33;;;;;;;9.48;4.20;;;;;;;19.02;64.29;98630.00;4991814;28;20028;-90
2022/09/16 03:07:00;;;;;;;8.40;3.55;;;;;;;19.09;64.45;98641.16;5000098;28;20053;-90
2022/09/16 03:09:28;;;;;;;9.35;3.75;;;;;;;19.11;63.87;98625.22;4994210;28;20041;-90
2022/09/16 03:12:06;;;;;;;9.18;3.72;;;;;;;19.17;64.37;98632.03;4961427;28;20142;-90
2022/09/16 03:15:26;;;;;;;13.40;3.72;;;;;;;19.15;64.54;98639.78;5004857;28;20046;-90
2022/09/16 03:17:56;;;;;;;10.35;3.55;;;;;;;19.08;64.90;98612.25;4980875;28;20100;-91
2022/09/16 03:20:54;;;;;;;6.32;3.80;;;;;;;19.19;64.92;98626.22;5031374;28;20044;-91
2022/09/16 03:23:45;;;;;;;7.57;3.28;;;;;;;19.09;64.91;98613.03;5027348;28;20044;-91
2022/09/16 03:26:20;;;;;;;7.60;3.65;;;;;;;19.07;64.77;98612.59;4996876;28;20018;-90
2022/09/16 03:28:58;;;;;;;8.40;3.50;;;;;;;19.33;64.20;98634.06;5012468;28;20385;-90
2022/09/16 03:31:31;;;;;;;8.68;3.38;;;;;;;19.25;64.17;98613.94;5013727;28;20036;-91
2022/09/16 03:34:08;;;;;;;7.28;3.60;;;;;;;19.27;64.17;98617.09;5012504;28;20473;-90
2022/09/16 03:36:36;;;;;;;10.52;3.88;;;;;;;19.31;64.65;98617.22;5012422;28;20026;-90
2022/09/16 03:39:02;;;;;;;10.98;3.53;;;;;;;19.24;65.34;98615.09;4995987;28;20504;-90
2022/09/16 03:41:28;;;;;;;11.20;3.97;;;;;;;19.24;65.50;98612.34;4995689;28;20508;-90
2022/09/16 03:43:54;;;;;;;13.75;3.92;;;;;;;19.28;65.19;98617.91;5012579;28;20024;-90
2022/09/16 03:46:20;;;;;;;12.00;3.78;;;;;;;19.22;65.32;98622.81;4994168;28;20030;-91
2022/09/16 03:48:45;;;;;;;9.50;3.88;;;;;;;19.20;65.62;98619.63;4974950;28;20026;-92
2022/09/16 03:51:11;;;;;;;9.88;3.80;;;;;;;19.24;65.58;98617.81;4960060;28;20069;-91
2022/09/16 03:53:36;;;;;;;9.98;3.88;;;;;;;19.18;65.75;98613.72;4976187;28;20106;-91
2022/09/16 03:56:06;;;;;;;9.70;3.60;;;;;;;19.15;65.46;98608.94;4976546;28;20026;-91
2022/09/16 03:58:32;;;;;;;7.95;4.10;;;;;;;19.08;65.61;98619.66;4960417;28;20068;-91
2022/09/16 04:00:57;;;;;;;16.17;5.70;;;;;;;19.02;65.50;98610.13;4961430;28;20120;-95
2022/09/16 04:03:23;;;;;;;8.18;3.10;;;;;;;19.01;66.18;98603.06;4976786;28;20030;-93
2022/09/16 04:05:52;;;;;;;8.60;3.30;;;;;;;18.92;66.11;98619.56;5006375;28;20084;-94
2022/09/16 04:08:18;;;;;;;9.55;3.35;;;;;;;18.78;66.31;98611.72;4994044;28;20029;-91
2022/09/16 04:10:53;;;;;;;7.93;3.10;;;;;;;18.65;66.71;98604.66;4988481;28;20543;-93
2022/09/16 04:13:18;;;;;;;10.25;3.60;;;;;;;18.67;66.82;98616.78;4977757;28;20153;-94
2022/09/16 04:15:44;;;;;;;9.75;3.33;;;;;;;18.72;66.39;98622.03;4998417;28;20636;-94
2022/09/16 04:18:09;;;;;;;14.00;3.92;;;;;;;18.84;66.69;98637.63;4962648;28;20477;-94
2022/09/16 04:20:35;;;;;;;15.68;4.10;;;;;;;18.80;66.37;98628.56;4977289;28;20062;-95
2022/09/16 04:23:00;;;;;;;8.07;3.20;;;;;;;18.80;65.97;98617.66;4963972;28;20057;-94
2022/09/16 04:25:26;;;;;;;11.65;5.32;;;;;;;18.86;65.90;98615.47;4961391;28;20022;-95
2022/09/16 04:27:51;;;;;;;8.82;4.05;;;;;;;19.04;65.61;98635.13;4994535;28;20034;-95
2022/09/16 04:30:19;;;;;;;10.77;4.10;;;;;;;19.03;65.76;98633.50;4994532;28;20480;-94
2022/09/16 04:32:44;;;;;;;12.52;3.90;;;;;;;18.93;66.36;98635.59;4965607;28;20507;-94
2022/09/16 04:35:10;;;;;;;15.65;4.20;;;;;;;18.96;65.98;98647.75;4983480;28;20142;-95
2022/09/16 04:37:38;;;;;;;11.18;5.25;;;;;;;19.08;65.90;98658.66;4981627;28;20042;-95
2022/09/16 04:40:05;;;;;;;12.38;5.75;;;;;;;19.11;65.50;98647.06;4982154;28;20045;-95
2022/09/16 04:42:37;;;;;;;10.88;5.47;;;;;;;19.08;66.23;98658.66;4998339;28;20022;-93
2022/09/16 04:45:04;;;;;;;14.48;4.72;;;;;;;19.03;65.93;98649.88;4982023;28;20053;-95
2022/09/16 04:51:32;;;;;;;13.43;4.93;;;;;;;19.04;66.51;98646.81;4874370;29;20531;-96
2022/09/16 04:54:00;;;;;;;13.77;5.13;;;;;;;18.96;66.49;98636.81;4869075;29;20036;-96
2022/09/16 04:56:30;;;;;;;20.55;5.82;;;;;;;19.10;66.21;98645.44;4954053;28;20094;-96
2022/09/16 04:58:59;;;;;;;13.40;5.70;;;;;;;19.23;66.24;98667.28;4983500;28;20062;-95
2022/09/16 05:01:29;;;;;;;15.63;6.57;;;;;;;19.16;66.41;98643.28;4999205;28;20110;-92
2022/09/16 05:03:57;;;;;;;16.52;6.38;;;;;;;19.13;65.78;98649.44;4967250;28;20046;-95
2022/09/16 05:06:33;;;;;;;22.25;6.22;;;;;;;19.21;66.20;98664.09;4982331;28;20461;-92
2022/09/16 05:09:01;;;;;;;12.63;5.18;;;;;;;19.13;67.17;98649.44;4981292;28;20031;-94
2022/09/16 05:11:38;;;;;;;9.10;4.80;;;;;;;19.33;67.29;98680.44;4981741;28;20084;-94
2022/09/16 05:14:06;;;;;;;15.73;6.18;;;;;;;19.13;66.39;98661.16;4966638;28;20433;-95
2022/09/16 05:16:32;;;;;;;14.98;5.72;;;;;;;19.36;65.31;98666.09;4964851;28;20050;-95
2022/09/16 05:18:58;;;;;;;13.18;5.50;;;;;;;19.60;64.30;98673.44;4981613;28;20053;-93
2022/09/16 05:21:36;;;;;;;10.15;5.47;;;;;;;19.67;63.53;98656.47;4985369;28;20025;-95
2022/09/16 05:24:22;;;;;;;15.90;7.47;;;;;;;19.79;64.35;98665.44;5000058;28;20026;-90
2022/09/16 05:26:48;;;;;;;11.07;5.30;;;;;;;19.62;64.15;98626.69;4949195;28;20206;-94
2022/09/16 05:29:16;;;;;;;16.40;5.68;;;;;;;19.92;63.75;98629.88;4966687;28;20039;-96
2022/09/16 05:31:42;;;;;;;13.07;6.45;;;;;;;20.08;63.87;98633.44;4958015;28;20118;-95
2022/09/16 05:34:23;;;;;;;10.25;5.93;;;;;;;20.35;63.56;98645.47;4961158;28;20030;-93
2022/09/16 05:37:00;;;;;;;19.38;10.57;;;;;;;20.60;62.84;98648.06;4934251;28;20108;-95
2022/09/16 05:39:33;;;;;;;20.15;9.68;;;;;;;20.60;62.19;98620.72;4952670;29;20126;-93
2022/09/16 05:41:59;;;;;;;16.30;6.53;;;;;;;20.68;60.61;98602.53;4927315;29;20046;-95
2022/09/16 05:44:30;;;;;;;13.43;5.93;;;;;;;21.03;60.01;98648.31;4946807;29;20429;-95
2022/09/16 05:47:57;;;;;;;;;;;;;;;;;;;;;
2022/09/16 05:50:25;;;;;;;14.60;6.60;;;;;;;21.45;57.23;98639.47;4963411;29;20113;-95
2022/09/16 05:53:10;;;;;;;39.33;22.90;;;;;;;21.46;58.30;98627.34;4932189;29;20126;-95
2022/09/16 06:04:58;;;;;;;19.17;6.18;;;;;;;21.92;57.95;98658.44;5385330;23;20546;-95
2022/09/16 06:07:26;;;;;;;11.15;4.95;;;;;;;21.96;58.89;98662.06;5002583;28;20052;-93
2022/09/16 06:09:52;;;;;;;15.82;6.00;;;;;;;22.05;58.55;98658.31;4985795;28;20112;-95
2022/09/16 06:12:38;;;;;;;;;;;;;;;;;;;;;
2022/09/16 06:18:44;;;;;;;16.52;5.00;;;;;;;22.23;58.24;98656.72;4986830;28;20041;-96
2022/09/16 06:24:32;;;;;;;20.88;13.65;;;;;;;22.58;58.04;98677.72;4940986;29;20569;-94
2022/09/16 06:27:09;;;;;;;12.05;5.18;;;;;;;22.59;57.10;98677.31;4943420;29;20036;-95
2022/09/16 06:29:38;;;;;;;15.25;6.10;;;;;;;22.54;56.49;98657.66;4928494;29;20040;-94
2022/09/16 06:32:04;;;;;;;10.40;4.85;;;;;;;22.71;56.80;98668.13;4930097;28;20032;-94
2022/09/16 06:34:32;;;;;;;14.93;5.10;;;;;;;22.60;57.14;98653.44;4979877;28;20109;-94
2022/09/16 06:37:05;;;;;;;11.75;5.10;;;;;;;22.74;56.29;98669.34;4977643;28;20524;-93
2022/09/16 06:42:57;;;;;;;;;;;;;;;;;;;;;
2022/09/16 06:45:28;;;;;;;12.75;5.53;;;;;;;22.76;55.33;98659.56;4966102;28;20534;-96
2022/09/16 06:51:29;;;;;;;11.83;4.53;;;;;;;22.97;55.27;98658.31;4961641;28;20456;-94
2022/09/16 06:54:01;;;;;;;15.35;4.47;;;;;;;23.24;49.65;98653.66;4969792;28;20262;-95
2022/09/16 06:56:29;;;;;;;9.20;1.88;;;;;;;23.69;43.66;98640.91;4952093;28;20094;-94
2022/09/16 06:58:56;;;;;;;11.48;1.52;;;;;;;24.28;41.33;98660.44;5002700;28;20034;-96
2022/09/16 07:08:16;;;;;;;11.60;2.30;;;;;;;25.57;38.37;98666.97;4920566;28;20077;-96
2022/09/16 07:10:53;;;;;;;;;;;;;;;;;;;;;
2022/09/16 07:14:04;;;;;;;8.77;1.70;;;;;;;26.26;37.68;98692.84;4987755;28;20099;-96
2022/09/16 07:16:49;;;;;;;9.25;2.00;;;;;;;26.31;36.82;98667.59;4909273;29;20049;-95
2022/09/16 07:19:25;;;;;;;11.38;1.70;;;;;;;26.58;35.74;98683.84;4891395;29;20037;-96
2022/09/16 07:25:36;;;;;;;9.55;3.20;;;;;;;26.90;37.04;98685.84;4887450;29;20033;-96
2022/09/16 07:28:02;;;;;;;9.07;2.33;;;;;;;26.96;36.51;98675.97;4872213;29;20037;-92
2022/09/16 07:30:29;;;;;;;7.93;2.50;;;;;;;27.05;36.08;98676.34;4935326;28;20045;-94
2022/09/16 07:33:01;;;;;;;11.50;2.50;;;;;;;27.09;35.81;98676.34;4958658;28;20041;-96
2022/09/16 07:35:28;;;;;;;6.88;2.30;;;;;;;27.23;35.95;98694.91;4942827;29;20039;-94
2022/09/16 07:38:01;;;;;;;4.55;2.00;;;;;;;27.08;35.51;98680.28;4914250;28;20102;-96
2022/09/16 07:40:39;;;;;;;7.60;2.60;;;;;;;27.39;35.68;98707.16;4963356;28;20070;-96
2022/09/16 07:43:45;;;;;;;10.45;2.92;;;;;;;27.57;34.92;98706.31;4965563;28;20045;-96
2022/09/16 07:46:21;;;;;;;10.10;2.83;;;;;;;27.49;34.81;98697.22;4987479;28;20093;-96
2022/09/16 07:49:15;;;;;;;11.48;3.63;;;;;;;27.54;35.41;98679.47;4966130;28;20038;-96
2022/09/16 07:55:07;;;;;;;9.82;3.05;;;;;;;27.71;34.70;98686.13;5104443;23;20080;-95
2022/09/16 07:57:36;;;;;;;8.65;2.90;;;;;;;27.72;35.29;98680.16;4950811;28;20042;-96
2022/09/16 08:00:05;;;;;;;10.07;3.08;;;;;;;27.78;34.32;98686.06;4963521;28;20516;-96
2022/09/16 08:02:31;;;;;;;11.85;2.75;;;;;;;27.86;34.74;98690.41;4947941;28;20032;-95
2022/09/16 08:04:56;;;;;;;9.65;2.92;;;;;;;27.90;34.64;98677.34;4946983;28;20018;-94
2022/09/16 08:07:23;;;;;;;9.10;2.70;;;;;;;27.85;34.23;98665.88;4946203;28;20022;-96
2022/09/16 08:09:54;;;;;;;11.13;3.92;;;;;;;27.91;35.29;98665.13;4977231;28;20022;-95
2022/09/16 08:12:32;;;;;;;9.38;2.60;;;;;;;28.00;34.76;98675.75;4964375;28;20039;-93
2022/09/16 08:15:27;;;;;;;10.50;2.50;;;;;;;28.01;33.81;98680.84;4947581;28;20034;-96
2022/09/16 08:17:53;;;;;;;11.57;2.63;;;;;;;28.11;33.95;98679.22;4963410;28;20484;-95
2022/09/16 08:20:20;;;;;;;11.15;2.65;;;;;;;28.05;33.96;98671.75;4948340;28;20054;-95
2022/09/16 08:22:46;;;;;;;10.20;2.30;;;;;;;28.07;33.77;98666.59;4948916;28;20104;-96
2022/09/16 08:25:12;;;;;;;12.77;2.63;;;;;;;28.11;34.63;98664.59;4949599;28;20030;-95
2022/09/16 08:27:42;;;;;;;11.23;2.85;;;;;;;28.18;34.30;98676.44;4949431;28;20054;-94
2022/09/16 08:30:08;;;;;;;15.88;3.42;;;;;;;28.06;33.91;98667.78;4950007;28;20117;-95
2022/09/16 08:33:25;;;;;;;9.95;2.35;;;;;;;28.30;34.36;98697.31;4947850;28;20065;-96
2022/09/16 08:35:58;;;;;;;8.93;2.00;;;;;;;28.37;34.16;98690.97;4981578;28;20089;-96
2022/09/16 08:38:27;;;;;;;11.95;2.22;;;;;;;28.37;34.36;98674.34;4960816;28;20058;-95
2022/09/16 08:40:57;;;;;;;11.52;2.03;;;;;;;28.45;33.70;98695.22;4947551;28;20030;-95
2022/09/16 08:43:26;;;;;;;10.98;2.50;;;;;;;28.48;33.80;98690.88;4944934;28;20081;-91
2022/09/16 08:46:08;;;;;;;8.10;2.30;;;;;;;28.56;34.34;98690.44;4956753;28;20030;-91
2022/09/16 08:49:08;;;;;;;13.77;2.40;;;;;;;28.38;35.08;98667.59;4981442;28;20111;-92
2022/09/16 09:06:09;;;;;;;;;;;;;;;;;;;;;
2022/09/16 09:08:50;;;;;;;;;;;;;;;28.74;33.74;98670.94;4985904;28;20097;-95
2022/09/16 09:11:27;;;;;;;8.15;2.28;;;;;;;28.77;33.73;98667.34;4998949;28;20346;-95
2022/09/16 09:14:28;;;;;;;6.38;1.80;;;;;;;28.62;33.89;98657.56;4997172;28;20029;-93
2022/09/16 09:16:59;;;;;;;6.43;2.22;;;;;;;28.71;34.02;98654.34;4993892;28;20486;-93
2022/09/16 09:19:44;;;;;;;12.95;3.03;;;;;;;28.79;34.17;98647.53;4962295;28;20074;-94
2022/09/16 09:22:44;;;;;;;5.40;1.83;;;;;;;28.88;33.44;98642.28;4948502;28;20102;-94
2022/09/16 09:25:38;;;;;;;8.73;2.03;;;;;;;28.92;33.27;98633.97;4962521;28;20127;-94
2022/09/16 09:29:02;;;;;;;6.72;2.15;;;;;;;29.05;33.63;98645.31;4990870;28;20125;-95
2022/09/16 09:31:56;;;;;;;7.80;2.15;;;;;;;29.16;33.16;98644.03;4902780;29;20183;-93
2022/09/16 09:34:25;;;;;;;7.97;1.88;;;;;;;29.19;33.49;98636.88;4993937;28;20029;-94
2022/09/16 09:37:20;;;;;;;4.40;1.92;;;;;;;29.15;33.87;98639.69;4987918;28;20061;-91
2022/09/16 09:40:28;;;;;;;7.40;1.80;;;;;;;29.19;33.53;98623.00;4987479;28;20178;-93
2022/09/16 09:43:23;;;;;;;9.98;2.75;;;;;;;29.27;33.76;98607.88;4986880;28;20433;-90
2022/09/16 09:46:03;;;;;;;13.10;2.33;;;;;;;29.39;33.75;98614.88;5002711;28;20029;-94
2022/09/16 09:48:36;;;;;;;17.27;2.50;;;;;;;29.46;33.29;98625.09;5017001;28;20021;-92
2022/09/16 09:51:05;;;;;;;5.80;1.83;;;;;;;29.44;33.24;98608.88;5016256;28;20026;-95
2022/09/16 09:53:52;;;;;;;12.40;2.83;;;;;;;29.49;32.70;98597.31;4999142;28;20033;-96
2022/09/16 09:56:22;;;;;;;7.82;2.08;;;;;;;29.47;32.56;98613.59;4984610;28;20154;-91
2022/09/16 09:59:23;;;;;;;8.60;2.67;;;;;;;29.54;32.44;98607.94;4997724;28;20018;-93
2022/09/16 10:01:56;;;;;;;8.45;2.67;;;;;;;29.64;33.07;98594.38;4974291;28;20026;-94
2022/09/16 10:04:22;;;;;;;10.50;1.80;;;;;;;29.76;32.14;98596.59;4959866;28;20066;-92
2022/09/16 10:06:47;;;;;;;6.13;1.70;;;;;;;29.68;32.48;98586.78;4943365;28;20090;-93
2022/09/16 10:09:17;;;;;;;7.47;1.67;;;;;;;29.69;32.60;98613.31;4960155;28;20110;-93
2022/09/16 10:11:53;;;;;;;5.65;1.58;;;;;;;29.67;32.54;98618.50;4932294;28;20023;-93
2022/09/16 10:14:28;;;;;;;5.95;2.22;;;;;;;29.73;32.63;98609.31;4944309;28;20029;-94
2022/09/16 10:16:54;;;;;;;5.13;1.77;;;;;;;29.78;31.92;98599.72;4971113;28;20444;-92
2022/09/16 10:19:24;;;;;;;7.43;2.20;;;;;;;29.85;32.73;98621.06;4944105;28;20027;-96
2022/09/16 10:22:11;;;;;;;11.55;2.00;;;;;;;29.90;32.49;98595.63;4960322;28;20026;-94
2022/09/16 10:24:45;;;;;;;3.92;1.63;;;;;;;29.87;31.49;98611.13;4945939;28;20026;-92
2022/09/16 10:27:26;;;;;;;8.30;2.40;;;;;;;30.08;31.98;98604.47;4933867;28;20042;-95
2022/09/16 10:30:08;;;;;;;8.80;2.17;;;;;;;30.34;31.67;98600.16;4961513;28;20120;-94
2022/09/16 10:32:52;;;;;;;6.30;2.72;;;;;;;30.47;31.14;98613.44;4958833;28;20039;-95
2022/09/16 10:35:37;;;;;;;4.90;1.48;;;;;;;30.54;30.66;98618.88;4960062;28;20039;-95
2022/09/16 10:38:03;;;;;;;8.15;1.75;;;;;;;30.68;30.85;98615.84;4950883;29;20024;-92
2022/09/16 10:40:50;;;;;;;4.15;1.55;;;;;;;30.63;31.01;98602.44;4948780;28;20065;-91
2022/09/16 10:43:15;;;;;;;11.45;2.72;;;;;;;30.57;31.08;98579.91;4922320;29;20046;-92
2022/09/16 10:45:45;;;;;;;8.40;1.80;;;;;;;30.67;31.13;98596.81;4922535;29;20027;-92
2022/09/16 10:48:34;;;;;;;7.50;1.40;;;;;;;30.86;30.65;98611.97;4915741;29;20438;-92
2022/09/16 10:51:04;;;;;;;8.10;1.95;;;;;;;30.72;30.15;98574.13;4920435;28;20045;-93
2022/09/16 10:53:39;;;;;;;5.97;2.20;;;;;;;30.86;31.07;98595.28;4947974;28;20034;-96
2022/09/16 10:56:28;;;;;;;5.78;2.00;;;;;;;30.91;30.67;98589.28;4925077;29;20099;-96
2022/09/16 10:59:09;;;;;;;6.72;1.73;;;;;;;31.05;30.51;98602.94;4894456;29;20039;-95
2022/09/16 11:01:37;;;;;;;10.93;2.25;;;;;;;31.09;30.79;98602.84;4892381;29;20035;-95
2022/09/16 11:04:48;;;;;;;5.70;1.45;;;;;;;30.97;30.52;98604.28;4922945;29;20518;-95
2022/09/16 11:07:19;;;;;;;8.52;1.90;;;;;;;31.00;30.92;98586.72;4936824;29;20031;-92
2022/09/16 11:10:12;;;;;;;5.75;1.88;;;;;;;31.04;30.80;98595.78;4903146;29;20039;-92
2022/09/16 11:13:18;;;;;;;11.15;2.00;;;;;;;31.20;30.23;98598.66;4905950;29;20092;-92
2022/09/16 11:16:06;;;;;;;7.60;1.92;;;;;;;31.05;30.39;98586.25;4918749;29;20036;-92
2022/09/16 11:18:53;;;;;;;11.07;1.90;;;;;;;31.07;30.48;98578.25;4906669;29;20039;-91
2022/09/16 11:21:44;;;;;;;4.65;1.48;;;;;;;30.96;29.87;98566.53;4920270;29;20040;-92
2022/09/16 11:24:36;;;;;;;6.53;1.60;;;;;;;31.08;30.37;98577.03;4906204;29;20057;-96
2022/09/16 11:27:26;;;;;;;10.25;2.28;;;;;;;31.05;31.01;98569.56;4958200;28;20047;-94
2022/09/16 11:30:14;;;;;;;6.82;2.90;;;;;;;31.10;30.91;98571.06;4961532;28;20034;-95
2022/09/16 11:33:21;;;;;;;11.63;2.10;;;;;;;31.08;29.91;98567.91;4944857;28;20034;-93
2022/09/16 11:36:07;;;;;;;5.25;2.22;;;;;;;30.80;30.41;98551.31;4979109;28;20027;-92
2022/09/16 11:38:45;;;;;;;8.38;3.13;;;;;;;30.81;30.47;98563.22;4979524;28;20113;-93
2022/09/16 11:41:24;;;;;;;6.63;1.75;;;;;;;30.77;29.93;98552.16;4980634;28;20033;-93
2022/09/16 11:43:56;;;;;;;7.60;1.73;;;;;;;30.64;30.75;98565.13;4998077;28;20473;-93
2022/09/16 11:46:37;;;;;;;6.00;1.80;;;;;;;30.66;31.07;98562.69;5014225;28;20080;-93
2022/09/16 11:49:18;;;;;;;11.98;2.55;;;;;;;30.57;31.02;98552.13;4997053;28;20022;-93
2022/09/16 11:51:56;;;;;;;;;;;;;;;30.56;30.45;98552.56;4981560;28;20041;-93
2022/09/16 11:54:59;;;;;;;9.48;2.40;;;;;;;30.48;31.79;98548.31;4964424;28;19914;-93
2022/09/16 11:57:55;;;;;;;4.45;1.60;;;;;;;30.51;31.28;98545.50;4974214;28;20159;-94
2022/09/16 12:00:20;;;;;;;8.60;3.00;;;;;;;30.33;31.75;98531.91;4932909;28;20074;-93
2022/09/16 12:03:03;;;;;;;7.18;1.90;;;;;;;29.94;32.29;98527.72;4961618;28;20026;-93
2022/09/16 12:05:52;;;;;;;9.38;1.98;;;;;;;29.84;31.95;98512.03;4961711;28;20404;-94
2022/09/16 12:08:24;;;;;;;5.22;2.00;;;;;;;29.89;31.95;98528.22;4980349;28;20499;-93
2022/09/16 12:11:18;;;;;;;6.97;1.70;;;;;;;29.98;31.80;98522.91;4993869;28;20106;-93
2022/09/16 12:13:48;;;;;;;6.65;1.73;;;;;;;29.93;31.60;98511.53;4961891;28;20034;-94
2022/09/16 12:16:16;;;;;;;7.38;1.70;;;;;;;30.02;31.86;98526.41;4973055;28;20130;-93
2022/09/16 12:18:48;;;;;;;12.00;2.38;;;;;;;29.91;31.74;98530.59;4949178;28;20039;-91
2022/09/16 12:21:20;;;;;;;6.32;1.65;;;;;;;29.71;31.91;98517.38;4950025;28;20027;-94
2022/09/16 12:23:47;;;;;;;;;;;;;;;29.77;31.77;98535.13;4971962;28;20036;-92
2022/09/16 12:26:20;;;;;;;10.32;2.33;;;;;;;29.61;31.90;98508.00;4959454;28;19910;-91
2022/09/16 12:28:49;;;;;;;7.47;1.88;;;;;;;29.85;32.74;98537.81;4963410;28;20045;-92
2022/09/16 12:31:37;;;;;;;5.38;1.58;;;;;;;29.91;31.92;98538.91;4957268;28;20413;-92
2022/09/16 12:34:11;;;;;;;4.65;1.35;;;;;;;29.87;31.93;98527.84;4950175;28;20117;-92
2022/09/16 12:36:42;;;;;;;6.68;2.10;;;;;;;29.93;32.39;98536.50;4961601;28;20412;-94
2022/09/16 12:39:08;;;;;;;7.18;1.60;;;;;;;29.60;32.79;98519.50;4964322;28;20097;-94
2022/09/16 12:41:54;;;;;;;16.55;2.50;;;;;;;29.76;33.00;98541.09;4963400;28;20026;-94
2022/09/16 12:44:57;;;;;;;6.70;1.77;;;;;;;29.74;32.63;98551.84;4994632;28;20468;-93
2022/09/16 12:47:44;;;;;;;12.50;2.45;;;;;;;29.57;33.00;98548.06;5013307;28;20100;-94
2022/09/16 12:50:20;;;;;;;7.55;2.17;;;;;;;29.42;32.70;98559.34;4996515;28;20117;-93
2022/09/16 12:53:12;;;;;;;5.82;1.40;;;;;;;29.32;33.40;98563.03;4984460;28;20045;-91
2022/09/16 12:55:53;;;;;;;6.93;2.60;;;;;;;29.35;33.41;98589.19;4952977;29;20137;-91
2022/09/16 12:58:37;;;;;;;8.93;1.90;;;;;;;29.17;33.89;98598.47;4960745;28;20055;-92
2022/09/16 13:01:12;;;;;;;10.98;2.47;;;;;;;29.15;34.23;98587.00;4960852;28;20082;-93
2022/09/16 13:03:43;;;;;;;3.45;1.40;;;;;;;28.86;34.10;98549.69;4961513;28;20122;-95
2022/09/16 13:06:48;;;;;;;6.00;1.67;;;;;;;28.86;35.13;98552.47;4947013;28;20481;-92
2022/09/16 13:09:38;;;;;;;7.82;2.80;;;;;;;28.82;36.98;98594.06;4916154;28;20096;-91
2022/09/16 13:12:24;;;;;;;9.85;2.03;;;;;;;28.24;37.66;98562.50;4961675;28;20549;-92
2022/09/16 13:14:55;;;;;;;7.35;1.40;;;;;;;28.31;37.61;98559.69;4973264;28;20492;-92